Latest Coastal Weather Observations for Coolangatta

IDQ60701

Issued at 6:42 am EST Friday 28 August 2015 (issued every 10 minutes, with the page automatically refreshed every 10 minutes)

About coastal observations | Map of coastal stations | Coastal observations for QLD | Marine services | Other Formats
Station Details ID: 040717 Name: COOLANGATTA Lat: -28.17 Lon: 153.51 Height: 4.0 m
Data from the previous 72 hours. | See also: Recent months at Coolangatta
Date/Time
EST
Temp

°C
Wind Pressure Rain
since 9am
mm
Weather Cloud Vis
km
Sea
Height
m
Swell
Dir
 
Speed
knots
Gust
knots
hPa Trend Height
m
Period
s
Dir
28/06:30am 16.0 CALM 0 0 1021.0 - 2.0 - Partly cloudy 10 - - - -
28/06:00am 15.9 CALM 0 0 1020.6 - 2.0 Rain Cloudy 10 - - - -
28/05:30am 15.9 SSE 4 7 1020.1 - 2.0 - Partly cloudy 10 - - - -
28/05:00am 15.8 SSE 4 6 1020.0 - 1.8 - Partly cloudy 10 - - - -
28/04:30am 15.9 SE 2 4 1019.7 - 1.8 - Partly cloudy 10 - - - -
28/04:00am 16.0 E 4 5 1019.4 - 1.8 - Partly cloudy 10 - - - -
28/03:30am 16.1 NNE 3 5 1019.2 - 1.8 - Partly cloudy 10 - - - -
28/03:00am 16.4 NNW 5 6 1019.5 - 1.8 - Cloudy 10 - - - -
28/02:30am 16.6 NNW 6 7 1019.8 - 1.8 - Partly cloudy 10 - - - -
28/02:00am 16.7 W 3 5 1019.6 - 1.8 - Partly cloudy 10 - - - -
28/01:30am 17.0 W 7 9 1020.1 - 1.8 - Cloudy 10 - - - -
28/01:00am 16.4 W 6 7 1020.4 - 1.8 - Partly cloudy 10 - - - -
28/12:30am 16.4 W 6 8 1020.2 - 1.8 - Partly cloudy 10 - - - -
28/12:00am 16.0 WSW 6 8 1020.6 - 1.8 Drizzle Cloudy 10 - - - -
 
Date/Time
EST
Temp

°C
Wind Pressure Rain
since 9am
mm
Weather Cloud Vis
km
Sea
Height
m
Swell
Dir
 
Speed
knots
Gust
knots
hPa Trend Height
m
Period
s
Dir
27/11:30pm 15.8 WSW 5 8 1021.0 - 1.8 - Partly cloudy 10 - - - -
27/11:00pm 15.6 W 6 8 1021.0 - 1.8 - Partly cloudy 10 - - - -
27/10:30pm 14.8 W 4 5 1021.0 - 1.8 - Partly cloudy 10 - - - -
27/10:00pm 14.8 NW 4 6 1021.0 - 1.8 - Partly cloudy 10 - - - -
27/09:30pm 15.1 NNW 4 5 1020.9 - 1.8 - Cloudy 10 - - - -
27/09:00pm 15.1 WNW 5 6 1021.0 - 1.8 - Mostly cloudy 10 - - - -
27/08:30pm 15.2 WNW 4 5 1020.6 - 1.8 - - 10 - - - -
27/08:00pm 15.3 NNW 5 7 1020.5 - 1.8 - - 10 - - - -
27/07:30pm 15.4 NNW 6 7 1020.4 - 1.8 - - 10 - - - -
27/07:00pm 15.3 NNW 5 6 1020.1 - 1.8 - Partly cloudy 10 - - - -
27/06:30pm 14.9 WNW 2 5 1020.0 - 1.8 - Partly cloudy 10 - - - -
27/06:00pm 14.6 WNW 5 6 1020.0 - 1.6 Showers Cloudy 10 - - - -
27/05:30pm 14.6 W 4 6 1019.8 - 1.6 - Partly cloudy 10 - - - -
27/05:00pm 14.9 WNW 4 6 1020.0 - 1.6 - Partly cloudy 10 - - - -
27/04:30pm 15.2 WNW 4 5 1020.0 - 1.0 - Partly cloudy 10 - - - -
27/04:00pm 15.7 WNW 7 11 1019.9 - 0.8 - Partly cloudy 10 - - - -
27/03:30pm 17.5 WSW 5 7 1019.3 - 0.6 - Partly cloudy 10 - - - -
27/03:00pm 18.5 WNW 4 6 1019.7 - 0.2 Showers Mostly cloudy 10 - - - -
27/02:30pm 19.2 WNW 4 5 1019.4 - 0.0 - Cloudy 10 - - - -
27/02:00pm 20.4 SE 4 6 1018.6 - 0.0 - Partly cloudy 10 - - - -
27/01:30pm 20.7 SE 6 8 1018.7 - 0.0 - Partly cloudy 10 - - - -
27/01:00pm 21.0 SSE 5 7 1019.0 - 0.0 - Partly cloudy 10 - - - -
27/12:30pm 21.2 SSE 6 8 1019.5 - 0.0 - Partly cloudy 10 - - - -
27/12:00pm 20.6 S 3 7 1020.2 - 0.0 Showers Cloudy 10 - - - -
27/11:30am 20.5 SE 3 5 1020.1 - 0.0 - Partly cloudy 10 - - - -
27/11:00am 20.0 SSW 4 5 1020.4 - 0.0 - Partly cloudy 10 - - - -
27/10:30am 19.8 CALM 0 0 1021.0 - 0.0 - Partly cloudy 10 - - - -
27/10:00am 19.0 SW 1 4 1021.2 - 0.0 - Cloudy 9 - - - -
27/09:30am 17.9 WSW 4 6 1021.4 - 0.0 - Partly cloudy 10 - - - -
27/09:00am 17.4 SW 3 4 1021.4 - 0.0 - Mostly cloudy 10 - - - -
27/08:30am 16.8 WSW 3 4 1021.3 - 0.0 - Partly cloudy 10 - - - -
27/08:00am 16.5 WSW 3 5 1021.1 - 0.0 - - 10 - - - -
27/07:30am 16.1 WSW 4 6 1021.0 - 0.0 - - 10 - - - -
27/07:00am 15.0 CALM 0 0 1020.7 - 0.0 - - 10 - - - -
27/06:30am 14.9 NW 1 4 1020.3 - 0.0 - - 10 - - - -
27/06:00am 15.0 CALM 0 3 1019.8 - 0.0 - Cloudy 10 - - - -
27/05:30am 15.1 SSE 3 4 1019.5 - 0.0 - - 10 - - - -
27/05:00am 15.0 SW 3 4 1019.8 - 0.0 - Partly cloudy 10 - - - -
27/04:30am 14.5 SSW 1 4 1019.5 - 0.0 - Partly cloudy 10 - - - -
27/04:00am 15.0 SSE 2 4 1019.3 - 0.0 - Partly cloudy 10 - - - -
27/03:30am 14.9 WSW 5 7 1019.6 - 0.0 - Partly cloudy 10 - - - -
27/03:00am 14.3 WSW 2 4 1019.3 - 0.0 - Cloudy 10 - - - -
27/02:30am 14.4 W 1 3 1019.2 - 0.0 - Partly cloudy 9 - - - -
27/02:12am 14.5 WNW 1 3 1019.2 - 0.0 - Partly cloudy 10 - - - -
27/02:00am 14.2 CALM 0 0 1019.8 - 0.0 - Partly cloudy 5 - - - -
27/01:53am 14.4 CALM 0 0 1019.4 - 0.0 - Partly cloudy 5 - - - -
27/01:30am 14.6 SW 2 4 1019.5 - 0.0 - Cloudy 10 - - - -
27/01:00am 14.8 SW 3 5 1019.8 - 0.0 - Partly cloudy 10 - - - -
27/12:30am 15.2 SW 5 7 1019.9 - 0.0 - - 10 - - - -
27/12:00am 15.3 WSW 4 5 1020.4 - 0.0 - Partly cloudy 10 - - - -
 
Date/Time
EST
Temp

°C
Wind Pressure Rain
since 9am
mm
Weather Cloud Vis
km
Sea
Height
m
Swell
Dir
 
Speed
knots
Gust
knots
hPa Trend Height
m
Period
s
Dir
26/11:30pm 15.4 SW 4 5 1020.5 - 0.0 - - 10 - - - -
26/11:00pm 15.6 SW 4 6 1020.5 - 0.0 - - 10 - - - -
26/10:51pm 15.0 W 3 5 1020.5 - 0.0 - - 10 - - - -
26/10:32pm 16.0 CALM 0 0 1020.6 - 0.0 - - 5 - - - -
26/10:30pm 16.1 CALM 0 2 1020.6 - 0.0 - - 9 - - - -
26/10:29pm 16.1 CALM 0 3 1020.6 - 0.0 - - 9 - - - -
26/10:00pm 16.1 CALM 0 0 1020.5 - 0.0 - - 1 - - - -
26/09:50pm 16.7 SW 1 3 1020.5 - 0.0 - - 6 - - - -
26/09:30pm 16.7 SSW 5 6 1020.4 - 0.0 - - 10 - - - -
26/09:27pm 16.4 SSW 4 6 1020.4 - 0.0 - - 10 - - - -
26/09:08pm 16.0 CALM 0 4 1020.3 - 0.0 - - 0.3 - - - -
26/09:00pm 15.4 CALM 0 1 1020.3 - 0.0 - - 10 - - - -
26/08:30pm 16.3 W 3 3 1020.2 - 0.0 - - 10 - - - -
26/08:00pm 17.3 SW 3 5 1019.8 - 0.0 - - 10 - - - -
26/07:30pm 17.9 W 4 5 1019.5 - 0.0 - - 10 - - - -
26/07:00pm 19.1 N 5 6 1019.1 - 0.0 - - 9 - - - -
26/06:30pm 20.0 N 7 10 1018.7 - 0.0 - - 10 - - - -
26/06:00pm 19.9 NNW 5 8 1018.5 - 0.0 - - 10 - - - -
26/05:30pm 20.8 N 4 6 1018.0 - 0.0 - - 10 - - - -
26/05:00pm 21.7 NNE 2 5 1017.6 - 0.0 - - 10 - - - -
26/04:30pm 22.0 N 9 12 1017.2 - 0.0 - - 10 - - - -
26/04:00pm 23.3 N 7 11 1016.8 - 0.0 - - 10 - - - -
26/03:30pm 23.1 NNE 10 13 1016.6 - 0.0 - - 10 - - - -
26/03:00pm 22.8 NNE 10 14 1016.7 - 0.0 - - 10 - - - -
26/02:30pm 23.0 NE 8 11 1017.1 - 0.0 - - 10 - - - -
26/02:00pm 22.8 NNE 13 17 1017.0 - 0.0 - - 10 - - - -
26/01:30pm 23.4 NNE 13 16 1017.2 - 0.0 - - 10 - - - -
26/01:00pm 23.4 NNE 14 17 1017.4 - 0.0 - - 10 - - - -
26/12:30pm 23.1 NNE 12 15 1018.0 - 0.0 - - 10 - - - -
26/12:00pm 23.4 NNE 9 13 1018.8 - 0.0 - - 10 - - - -
26/11:30am 22.8 NNE 10 13 1019.2 - 0.0 - - 10 - - - -
26/11:00am 21.7 NNE 8 11 1019.6 - 0.0 - - 10 - - - -
26/10:30am 22.2 NNE 7 10 1020.3 - 0.0 - - 10 - - - -
26/10:00am 21.8 NNE 5 7 1020.6 - 0.0 - - 10 - - - -
26/09:30am 21.9 NNE 6 8 1020.6 - 0.0 - - 10 - - - -
26/09:00am 21.0 NE 5 7 1020.7 - 0.2 - - 10 - - - -
26/08:30am 20.0 NNW 1 5 1020.6 - 0.2 - - 10 - - - -
26/08:13am 19.3 CALM 0 0 1020.5 - 0.2 - Partly cloudy 10 - - - -
26/08:00am 18.4 CALM 0 1 1020.5 - 0.2 - Partly cloudy 10 - - - -
26/07:44am 17.0 W 1 5 1020.5 - 0.2 - Partly cloudy 10 - - - -
26/07:30am 16.4 W 4 6 1020.4 - 0.2 - - 10 - - - -
26/07:00am 16.2 SW 1 3 1019.8 - 0.2 - Partly cloudy 10 - - - -
26/06:30am 15.3 W 4 5 1019.4 - 0.2 - - 10 - - - -
26/06:00am 15.2 CALM 0 0 1019.1 - 0.2 - Cloudy 10 - - - -
26/05:30am 15.3 SW 3 4 1018.9 - 0.2 - - 10 - - - -
26/05:00am 15.3 SSW 3 4 1018.7 - 0.2 - Partly cloudy 10 - - - -
26/04:30am 15.2 SW 2 4 1018.3 - 0.2 - Partly cloudy 10 - - - -
26/04:00am 15.4 SW 1 3 1018.0 - 0.2 - Partly cloudy 10 - - - -
26/03:30am 15.6 WSW 6 8 1017.8 - 0.2 - Partly cloudy 10 - - - -
26/03:00am 15.5 SW 1 3 1017.6 - 0.2 - Cloudy 9 - - - -
26/02:56am 15.5 SW 3 4 1017.7 - 0.2 - Partly cloudy 9 - - - -
26/02:40am 15.2 SSW 1 3 1017.9 - 0.2 - Partly cloudy 6 - - - -
26/02:30am 15.4 SW 1 4 1017.9 - 0.2 - Partly cloudy 10 - - - -
26/02:00am 15.5 SW 4 5 1018.1 - 0.2 - - 9 - - - -
26/01:34am 15.4 SW 4 5 1018.3 - 0.2 - - 8 - - - -
26/01:30am 15.7 SW 4 5 1018.3 - 0.2 - - 8 - - - -
26/01:04am 15.7 SW 1 4 1018.5 - 0.2 - - 6 - - - -
26/01:00am 15.6 SW 3 5 1018.5 - 0.2 - - 7 - - - -
26/12:53am 15.9 SW 5 5 1018.4 - 0.2 - - 8 - - - -
26/12:30am 15.6 CALM 0 0 1018.5 - 0.2 - - 3 - - - -
26/12:00am 16.0 CALM 0 0 1018.4 - 0.2 - - 0.4 - - - -
 
Date/Time
EST
Temp

°C
Wind Pressure Rain
since 9am
mm
Weather Cloud Vis
km
Sea
Height
m
Swell
Dir
 
Speed
knots
Gust
knots
hPa Trend Height
m
Period
s
Dir
25/11:30pm 16.6 CALM 0 0 1018.5 - 0.2 - - 2 - - - -
25/11:11pm 16.6 CALM 0 0 1018.4 - 0.2 - - 6 - - - -
25/11:00pm 16.1 NW 2 4 1018.4 - 0.2 - - 10 - - - -
25/10:30pm 16.6 WNW 2 4 1018.1 - 0.2 - - 9 - - - -
25/10:22pm 16.7 WSW 3 5 1018.2 - 0.2 - - 8 - - - -
25/10:00pm 16.1 CALM 0 0 1018.1 - 0.2 - - 2 - - - -
25/09:37pm 17.1 CALM 0 0 1018.2 - 0.2 - - 6 - - - -
25/09:34pm 17.6 CALM 0 0 1018.2 - 0.2 - - 8 - - - -
25/09:30pm 18.3 CALM 0 2 1018.2 - 0.2 - - 9 - - - -
25/09:16pm 17.8 SW 3 4 1018.3 - 0.2 - - 6 - - - -
25/09:15pm 17.9 SW 3 4 1018.3 - 0.2 - - 7 - - - -
25/09:00pm 18.3 S 3 4 1018.3 - 0.2 - - 6 - - - -
25/08:56pm 18.1 SSE 3 4 1018.3 - 0.2 - - 6 - - - -
25/08:51pm 18.7 SSE 3 4 1018.1 - 0.2 - - 8 - - - -
25/08:30pm 17.9 SSW 1 4 1018.0 - 0.2 - - 6 - - - -
25/08:00pm 19.2 CALM 0 1 1017.8 - 0.2 - - 8 - - - -
25/07:30pm 20.3 NNW 5 8 1017.4 - 0.2 - - 10 - - - -
25/07:00pm 20.3 NNW 8 11 1017.3 - 0.2 - - 10 - - - -
25/06:30pm 20.5 NNW 11 14 1016.8 - 0.2 - - 10 - - - -
25/06:00pm 20.5 N 13 18 1016.3 - 0.2 - - 10 - - - -
25/05:30pm 20.9 N 15 19 1015.9 - 0.2 - - 10 - - - -
25/05:00pm 21.2 N 14 19 1015.6 - 0.2 - - 10 - - - -
25/04:30pm 21.7 N 15 20 1015.5 - 0.2 - Partly cloudy 10 - - - -
25/04:00pm 22.0 N 16 21 1015.0 - 0.2 - - 10 - - - -
25/03:30pm 23.1 NNW 12 18 1015.2 - 0.2 - - 10 - - - -
25/03:00pm 23.6 N 15 19 1015.3 - 0.2 - - 10 - - - -
25/02:30pm 26.8 NNW 13 21 1015.1 - 0.2 - - 10 - - - -
25/02:00pm 27.1 NW 13 19 1015.3 - 0.2 - - 10 - - - -
25/01:30pm 26.6 WNW 13 23 1015.7 - 0.2 - - 10 - - - -
25/01:00pm 26.2 NW 13 20 1015.9 - 0.2 - Partly cloudy 10 - - - -
25/12:30pm 26.3 NW 11 17 1016.4 - 0.2 - Partly cloudy 10 - - - -
25/12:00pm 25.6 WNW 10 16 1016.5 - 0.2 Rain - 10 - - - -
25/11:30am 25.5 WNW 13 24 1016.8 - 0.0 - - 10 - - - -
25/11:00am 25.1 WNW 9 14 1017.0 - 0.0 - - 10 - - - -
25/10:30am 24.6 NW 9 17 1017.4 - 0.0 - - 10 - - - -
25/10:00am 22.2 N 12 16 1017.8 - 0.0 - - 10 - - - -
25/09:30am 21.2 N 13 16 1018.0 - 0.0 - - 10 - - - -
25/09:00am 22.4 NNW 9 14 1017.8 - 14.4 - - 10 - - - -
25/08:30am 21.5 NNW 9 16 1017.8 - 14.4 - - 10 - - - -
25/08:00am 20.2 NW 11 15 1017.7 - 14.4 - - 10 - - - -
25/07:30am 19.1 NNW 12 16 1017.2 - 14.4 - - 10 - - - -
25/07:00am 18.5 NNW 14 20 1016.6 - 14.4 - Partly cloudy 10 - - - -

Other Formats:

Comma delimited format used in spreadsheet applications
http://www.bom.gov.au/fwo/IDQ60701/IDQ60701.94592.axf

JavaScript Object Notation format (JSON) in row-major order
http://www.bom.gov.au/fwo/IDQ60701/IDQ60701.94592.json